Forside
METAR-TAF:

METAR-TAF

Lufthavne :

Flying Cloud Airport

Minneapolis / Eden Prairie, Minnesota, USA

Breddekreds: 44-49-56N, længdekreds: 093-28-13W, højde: 287 m

Aktuelle vejr

Denne rapport blev lavet for 57 minutter siden, kl. 02:53 UTC
Vind 9 kt fra østsydøst
Temperatur -5°C
Fugtighed 86%
Tryk 1016 hPa
Sigt: 4.0 km
Overskyet i en højde af 800 ft
dis

METAR: KFCM 180253Z 11009KT 2 1/2SM BR OVC008 M05/M07 A2999 RMK AO2 CIG 006V011 SLP173 60000 I1002 I3004 T10501072 58027

Tid: 21:50 (03:50 UTC)


TAF: fraværende

Vejrobservationer og prognoser fra mere end 4000 lufthavne (METAR og TAF).

De gule og røde prikker repræsenterer de meteorologiske stationer.

Flyt musen over at se navnet på stationen.

Så klik over at se vejr observationer og prognoser.

At skifte det kort: Klik på de grønne knapper med et sort kors for at zoome ind; på den grønne knap med en bindestreg for at zoome ud; eller på de grønne pile for tilstødende kort.


METAR-TAF: